sensor_id;sensor_type;location;lat;lon;timestamp;pressure;altitude;pressure_sealevel;temperature;humidity
4346;BME280;2186;49.866;7.986;2023-03-14T00:00:20;98303.94;;;11.92;100.00
4346;BME280;2186;49.866;7.986;2023-03-14T00:02:54;98302.97;;;11.80;100.00
4346;BME280;2186;49.866;7.986;2023-03-14T00:05:21;98313.19;;;11.86;100.00
4346;BME280;2186;49.866;7.986;2023-03-14T00:07:47;98305.69;;;11.93;100.00
4346;BME280;2186;49.866;7.986;2023-03-14T00:10:15;98308.13;;;11.96;100.00
4346;BME280;2186;49.866;7.986;2023-03-14T00:12:41;98304.19;;;12.01;100.00
4346;BME280;2186;49.866;7.986;2023-03-14T00:15:09;98275.25;;;12.09;100.00
4346;BME280;2186;49.866;7.986;2023-03-14T00:17:35;98275.38;;;12.08;100.00
4346;BME280;2186;49.866;7.986;2023-03-14T00:20:04;98280.13;;;12.03;100.00
4346;BME280;2186;49.866;7.986;2023-03-14T00:22:35;98281.31;;;11.99;100.00
4346;BME280;2186;49.866;7.986;2023-03-14T00:25:02;98273.09;;;12.02;100.00
4346;BME280;2186;49.866;7.986;2023-03-14T00:27:29;98268.19;;;11.96;100.00
4346;BME280;2186;49.866;7.986;2023-03-14T00:29:56;98258.94;;;12.01;99.91
4346;BME280;2186;49.866;7.986;2023-03-14T00:32:22;98243.38;;;11.95;100.00
4346;BME280;2186;49.866;7.986;2023-03-14T00:34:49;98233.34;;;11.86;100.00
4346;BME280;2186;49.866;7.986;2023-03-14T00:37:16;98228.22;;;11.83;100.00
4346;BME280;2186;49.866;7.986;2023-03-14T00:39:42;98230.06;;;11.95;100.00
4346;BME280;2186;49.866;7.986;2023-03-14T00:42:09;98226.25;;;11.99;100.00
4346;BME280;2186;49.866;7.986;2023-03-14T00:44:35;98228.53;;;11.91;100.00
4346;BME280;2186;49.866;7.986;2023-03-14T00:47:02;98219.75;;;11.76;100.00
4346;BME280;2186;49.866;7.986;2023-03-14T00:49:28;98222.91;;;11.83;99.81
4346;BME280;2186;49.866;7.986;2023-03-14T00:51:54;98239.66;;;11.98;100.00
4346;BME280;2186;49.866;7.986;2023-03-14T00:54:21;98248.34;;;11.87;99.36
4346;BME280;2186;49.866;7.986;2023-03-14T00:56:47;98253.47;;;11.90;99.50
4346;BME280;2186;49.866;7.986;2023-03-14T00:59:15;98249.56;;;11.69;100.00
4346;BME280;2186;49.866;7.986;2023-03-14T01:01:42;98258.28;;;11.71;100.00
4346;BME280;2186;49.866;7.986;2023-03-14T01:04:08;98257.50;;;11.83;100.00
4346;BME280;2186;49.866;7.986;2023-03-14T01:06:35;98266.69;;;11.77;100.00
4346;BME280;2186;49.866;7.986;2023-03-14T01:09:01;98255.00;;;11.94;100.00
4346;BME280;2186;49.866;7.986;2023-03-14T01:11:34;98239.44;;;11.74;100.00
4346;BME280;2186;49.866;7.986;2023-03-14T01:14:02;98247.22;;;11.77;100.00
4346;BME280;2186;49.866;7.986;2023-03-14T01:16:31;98263.78;;;11.82;100.00
4346;BME280;2186;49.866;7.986;2023-03-14T01:18:58;98251.34;;;11.82;100.00
4346;BME280;2186;49.866;7.986;2023-03-14T01:21:28;98252.97;;;11.71;100.00
4346;BME280;2186;49.866;7.986;2023-03-14T01:23:56;98242.63;;;11.66;100.00
4346;BME280;2186;49.866;7.986;2023-03-14T01:26:25;98256.91;;;11.65;100.00
4346;BME280;2186;49.866;7.986;2023-03-14T01:28:54;98253.34;;;11.65;100.00
4346;BME280;2186;49.866;7.986;2023-03-14T01:31:21;98252.22;;;11.69;100.00
4346;BME280;2186;49.866;7.986;2023-03-14T01:33:47;98244.44;;;11.78;100.00
4346;BME280;2186;49.866;7.986;2023-03-14T01:36:14;98236.03;;;11.72;100.00
4346;BME280;2186;49.866;7.986;2023-03-14T01:38:41;98232.84;;;11.67;100.00
4346;BME280;2186;49.866;7.986;2023-03-14T01:41:13;98231.19;;;11.51;100.00
4346;BME280;2186;49.866;7.986;2023-03-14T01:43:40;98233.16;;;11.75;100.00
4346;BME280;2186;49.866;7.986;2023-03-14T01:51:02;98221.31;;;11.80;100.00
4346;BME280;2186;49.866;7.986;2023-03-14T01:53:29;98210.97;;;11.62;100.00
4346;BME280;2186;49.866;7.986;2023-03-14T01:55:56;98210.34;;;11.58;100.00
4346;BME280;2186;49.866;7.986;2023-03-14T01:58:25;98210.44;;;11.56;100.00
4346;BME280;2186;49.866;7.986;2023-03-14T02:00:55;98202.59;;;11.68;100.00
4346;BME280;2186;49.866;7.986;2023-03-14T02:03:24;98190.00;;;11.57;100.00
4346;BME280;2186;49.866;7.986;2023-03-14T02:05:52;98181.47;;;11.79;100.00
4346;BME280;2186;49.866;7.986;2023-03-14T02:08:22;98176.16;;;11.52;100.00
4346;BME280;2186;49.866;7.986;2023-03-14T02:10:50;98182.16;;;11.68;100.00
4346;BME280;2186;49.866;7.986;2023-03-14T02:13:18;98173.69;;;11.49;100.00
4346;BME280;2186;49.866;7.986;2023-03-14T02:15:46;98158.94;;;11.57;100.00
4346;BME280;2186;49.866;7.986;2023-03-14T02:18:14;98162.03;;;11.37;100.00
4346;BME280;2186;49.866;7.986;2023-03-14T02:21:05;98162.72;;;11.41;100.00
4346;BME280;2186;49.866;7.986;2023-03-14T02:23:51;98157.94;;;11.46;100.00
4346;BME280;2186;49.866;7.986;2023-03-14T02:26:31;98148.78;;;11.50;100.00
4346;BME280;2186;49.866;7.986;2023-03-14T02:29:02;98146.91;;;11.52;100.00
4346;BME280;2186;49.866;7.986;2023-03-14T02:31:28;98154.88;;;11.65;100.00
4346;BME280;2186;49.866;7.986;2023-03-14T02:33:55;98157.44;;;11.53;100.00
4346;BME280;2186;49.866;7.986;2023-03-14T02:36:23;98157.69;;;11.36;100.00
4346;BME280;2186;49.866;7.986;2023-03-14T02:38:55;98148.47;;;11.42;100.00
4346;BME280;2186;49.866;7.986;2023-03-14T02:41:22;98156.22;;;11.45;100.00
4346;BME280;2186;49.866;7.986;2023-03-14T02:43:48;98143.41;;;11.37;100.00
4346;BME280;2186;49.866;7.986;2023-03-14T02:46:18;98141.66;;;11.50;100.00
4346;BME280;2186;49.866;7.986;2023-03-14T02:48:58;98145.16;;;11.51;100.00
4346;BME280;2186;49.866;7.986;2023-03-14T02:51:27;98138.31;;;11.34;100.00
4346;BME280;2186;49.866;7.986;2023-03-14T02:53:54;98131.44;;;11.44;100.00
4346;BME280;2186;49.866;7.986;2023-03-14T02:56:20;98132.06;;;11.48;100.00
4346;BME280;2186;49.866;7.986;2023-03-14T02:58:47;98128.16;;;11.53;100.00
4346;BME280;2186;49.866;7.986;2023-03-14T03:01:13;98127.94;;;11.44;100.00
4346;BME280;2186;49.866;7.986;2023-03-14T03:03:39;98128.41;;;11.36;100.00
4346;BME280;2186;49.866;7.986;2023-03-14T03:06:06;98127.03;;;11.31;100.00
4346;BME280;2186;49.866;7.986;2023-03-14T03:08:33;98117.16;;;11.33;100.00
4346;BME280;2186;49.866;7.986;2023-03-14T03:11:00;98114.59;;;11.31;100.00
4346;BME280;2186;49.866;7.986;2023-03-14T03:13:26;98110.19;;;11.57;100.00
4346;BME280;2186;49.866;7.986;2023-03-14T03:15:53;98092.16;;;11.48;100.00
4346;BME280;2186;49.866;7.986;2023-03-14T03:18:20;98090.47;;;11.47;99.96
4346;BME280;2186;49.866;7.986;2023-03-14T03:20:46;98084.28;;;11.46;99.97
4346;BME280;2186;49.866;7.986;2023-03-14T03:23:13;98081.66;;;11.59;100.00
4346;BME280;2186;49.866;7.986;2023-03-14T03:25:39;98090.38;;;11.48;100.00
4346;BME280;2186;49.866;7.986;2023-03-14T03:28:06;98094.09;;;11.46;100.00
4346;BME280;2186;49.866;7.986;2023-03-14T03:30:40;98098.03;;;11.40;100.00
4346;BME280;2186;49.866;7.986;2023-03-14T03:33:07;98098.56;;;11.45;100.00
4346;BME280;2186;49.866;7.986;2023-03-14T03:35:35;98091.78;;;11.54;100.00
4346;BME280;2186;49.866;7.986;2023-03-14T03:38:01;98072.06;;;11.44;100.00
4346;BME280;2186;49.866;7.986;2023-03-14T03:40:28;98079.91;;;11.33;100.00
4346;BME280;2186;49.866;7.986;2023-03-14T03:42:54;98068.94;;;11.37;100.00
4346;BME280;2186;49.866;7.986;2023-03-14T03:45:20;98070.47;;;11.41;99.92
4346;BME280;2186;49.866;7.986;2023-03-14T03:47:47;98057.81;;;11.57;99.49
4346;BME280;2186;49.866;7.986;2023-03-14T03:50:14;98051.19;;;11.50;99.59
4346;BME280;2186;49.866;7.986;2023-03-14T03:52:40;98048.25;;;11.55;99.94
4346;BME280;2186;49.866;7.986;2023-03-14T03:55:07;98048.88;;;11.46;99.89
4346;BME280;2186;49.866;7.986;2023-03-14T03:57:34;98040.72;;;11.22;100.00
4346;BME280;2186;49.866;7.986;2023-03-14T04:00:01;98043.13;;;11.39;100.00
4346;BME280;2186;49.866;7.986;2023-03-14T04:02:27;98048.09;;;11.31;100.00
4346;BME280;2186;49.866;7.986;2023-03-14T04:04:55;98049.44;;;11.11;100.00
4346;BME280;2186;49.866;7.986;2023-03-14T04:07:22;98053.19;;;11.34;100.00
4346;BME280;2186;49.866;7.986;2023-03-14T04:09:48;98060.13;;;11.24;100.00
4346;BME280;2186;49.866;7.986;2023-03-14T04:12:15;98061.28;;;11.33;100.00
4346;BME280;2186;49.866;7.986;2023-03-14T04:14:41;98065.22;;;11.27;100.00
4346;BME280;2186;49.866;7.986;2023-03-14T04:17:07;98055.09;;;11.19;100.00
4346;BME280;2186;49.866;7.986;2023-03-14T04:19:34;98074.16;;;11.26;100.00
4346;BME280;2186;49.866;7.986;2023-03-14T04:22:00;98066.03;;;11.15;100.00
4346;BME280;2186;49.866;7.986;2023-03-14T04:24:27;98062.97;;;11.21;100.00
4346;BME280;2186;49.866;7.986;2023-03-14T04:26:53;98058.94;;;11.28;100.00
4346;BME280;2186;49.866;7.986;2023-03-14T04:29:20;98049.78;;;11.19;100.00
4346;BME280;2186;49.866;7.986;2023-03-14T04:31:46;98053.59;;;11.15;100.00
4346;BME280;2186;49.866;7.986;2023-03-14T04:34:12;98049.78;;;11.19;100.00
4346;BME280;2186;49.866;7.986;2023-03-14T04:36:39;98050.47;;;11.09;100.00
4346;BME280;2186;49.866;7.986;2023-03-14T04:39:05;98054.31;;;11.05;100.00
4346;BME280;2186;49.866;7.986;2023-03-14T04:41:32;98058.97;;;11.01;100.00
4346;BME280;2186;49.866;7.986;2023-03-14T04:43:59;98055.91;;;11.07;100.00
4346;BME280;2186;49.866;7.986;2023-03-14T04:46:25;98047.34;;;10.89;100.00
4346;BME280;2186;49.866;7.986;2023-03-14T04:48:52;98065.75;;;10.92;100.00
4346;BME280;2186;49.866;7.986;2023-03-14T04:51:18;98065.84;;;10.91;100.00
4346;BME280;2186;49.866;7.986;2023-03-14T04:53:44;98063.50;;;10.86;100.00
4346;BME280;2186;49.866;7.986;2023-03-14T04:56:11;98067.53;;;11.19;100.00
4346;BME280;2186;49.866;7.986;2023-03-14T04:58:39;98058.66;;;11.06;100.00
4346;BME280;2186;49.866;7.986;2023-03-14T05:01:06;98051.41;;;10.95;100.00
4346;BME280;2186;49.866;7.986;2023-03-14T05:03:32;98062.72;;;10.98;100.00
4346;BME280;2186;49.866;7.986;2023-03-14T05:05:59;98054.72;;;10.98;100.00
4346;BME280;2186;49.866;7.986;2023-03-14T05:08:26;98049.75;;;11.07;100.00
4346;BME280;2186;49.866;7.986;2023-03-14T05:10:54;98047.13;;;11.19;100.00
4346;BME280;2186;49.866;7.986;2023-03-14T05:13:21;98040.88;;;10.93;100.00
4346;BME280;2186;49.866;7.986;2023-03-14T05:15:48;98046.41;;;10.90;100.00
4346;BME280;2186;49.866;7.986;2023-03-14T05:18:17;98027.28;;;10.98;100.00
4346;BME280;2186;49.866;7.986;2023-03-14T05:20:44;98016.13;;;11.06;100.00
4346;BME280;2186;49.866;7.986;2023-03-14T05:23:10;98017.69;;;10.83;100.00
4346;BME280;2186;49.866;7.986;2023-03-14T05:25:37;98010.03;;;10.91;100.00
4346;BME280;2186;49.866;7.986;2023-03-14T05:28:03;98008.25;;;11.04;100.00
4346;BME280;2186;49.866;7.986;2023-03-14T05:30:30;98014.66;;;10.75;100.00
4346;BME280;2186;49.866;7.986;2023-03-14T05:32:58;98006.75;;;10.87;100.00
4346;BME280;2186;49.866;7.986;2023-03-14T05:35:25;98019.88;;;10.76;100.00
4346;BME280;2186;49.866;7.986;2023-03-14T05:37:51;98012.06;;;10.87;100.00
4346;BME280;2186;49.866;7.986;2023-03-14T05:40:17;98021.72;;;10.88;100.00
4346;BME280;2186;49.866;7.986;2023-03-14T05:42:44;98035.34;;;10.84;100.00
4346;BME280;2186;49.866;7.986;2023-03-14T05:45:10;98029.06;;;10.85;100.00
4346;BME280;2186;49.866;7.986;2023-03-14T05:47:37;98032.16;;;10.91;100.00
4346;BME280;2186;49.866;7.986;2023-03-14T05:50:04;98034.09;;;11.02;100.00
4346;BME280;2186;49.866;7.986;2023-03-14T05:52:30;98037.56;;;10.90;100.00
4346;BME280;2186;49.866;7.986;2023-03-14T05:54:56;98034.50;;;10.96;99.95
4346;BME280;2186;49.866;7.986;2023-03-14T05:57:23;98037.94;;;10.98;100.00
4346;BME280;2186;49.866;7.986;2023-03-14T05:59:49;98033.44;;;10.86;100.00
4346;BME280;2186;49.866;7.986;2023-03-14T06:02:16;98032.16;;;10.91;100.00
4346;BME280;2186;49.866;7.986;2023-03-14T06:04:42;98031.84;;;10.96;100.00
4346;BME280;2186;49.866;7.986;2023-03-14T06:07:09;98036.59;;;11.31;99.94
4346;BME280;2186;49.866;7.986;2023-03-14T06:09:35;98030.38;;;11.05;99.58
4346;BME280;2186;49.866;7.986;2023-03-14T06:12:02;98030.09;;;11.22;99.71
4346;BME280;2186;49.866;7.986;2023-03-14T06:14:28;98038.06;;;11.22;99.16
4346;BME280;2186;49.866;7.986;2023-03-14T06:16:54;98041.69;;;11.21;99.75
4346;BME280;2186;49.866;7.986;2023-03-14T06:19:21;98033.56;;;11.10;99.56
4346;BME280;2186;49.866;7.986;2023-03-14T06:21:47;98035.31;;;11.11;99.72
4346;BME280;2186;49.866;7.986;2023-03-14T06:24:14;98025.72;;;11.21;99.97
4346;BME280;2186;49.866;7.986;2023-03-14T06:26:40;98027.25;;;11.25;99.22
4346;BME280;2186;49.866;7.986;2023-03-14T06:29:06;98026.47;;;11.23;99.17
4346;BME280;2186;49.866;7.986;2023-03-14T06:31:33;98016.06;;;11.20;99.34
4346;BME280;2186;49.866;7.986;2023-03-14T06:33:59;98024.78;;;11.22;99.66
4346;BME280;2186;49.866;7.986;2023-03-14T06:36:26;98019.16;;;11.26;99.35
4346;BME280;2186;49.866;7.986;2023-03-14T06:38:52;98027.16;;;11.26;99.18
4346;BME280;2186;49.866;7.986;2023-03-14T06:41:19;98015.47;;;11.42;99.00
4346;BME280;2186;49.866;7.986;2023-03-14T06:43:45;98013.75;;;11.41;99.53
4346;BME280;2186;49.866;7.986;2023-03-14T06:46:12;98019.47;;;11.35;99.27
4346;BME280;2186;49.866;7.986;2023-03-14T06:48:38;98005.91;;;11.52;98.32
4346;BME280;2186;49.866;7.986;2023-03-14T06:51:05;98009.94;;;11.57;98.30
4346;BME280;2186;49.866;7.986;2023-03-14T06:53:32;98008.31;;;11.42;99.00
4346;BME280;2186;49.866;7.986;2023-03-14T06:55:58;98010.53;;;11.36;99.30
4346;BME280;2186;49.866;7.986;2023-03-14T06:58:25;98009.81;;;11.46;99.87
4346;BME280;2186;49.866;7.986;2023-03-14T07:00:52;98020.56;;;11.57;99.88
4346;BME280;2186;49.866;7.986;2023-03-14T07:03:19;98022.50;;;11.55;99.91
4346;BME280;2186;49.866;7.986;2023-03-14T07:05:46;98015.13;;;11.46;99.78
4346;BME280;2186;49.866;7.986;2023-03-14T07:08:12;98015.75;;;11.37;100.00
4346;BME280;2186;49.866;7.986;2023-03-14T07:10:39;98020.66;;;11.31;100.00
4346;BME280;2186;49.866;7.986;2023-03-14T07:13:05;98015.97;;;11.47;100.00
4346;BME280;2186;49.866;7.986;2023-03-14T07:15:32;98021.53;;;11.44;100.00
4346;BME280;2186;49.866;7.986;2023-03-14T07:17:58;98005.56;;;11.56;100.00
4346;BME280;2186;49.866;7.986;2023-03-14T07:20:25;98022.88;;;11.37;100.00
4346;BME280;2186;49.866;7.986;2023-03-14T07:22:51;98024.50;;;11.39;100.00
4346;BME280;2186;49.866;7.986;2023-03-14T07:25:18;98022.59;;;11.54;100.00
4346;BME280;2186;49.866;7.986;2023-03-14T07:27:45;98026.53;;;11.61;100.00
4346;BME280;2186;49.866;7.986;2023-03-14T07:30:12;98025.56;;;11.49;100.00
4346;BME280;2186;49.866;7.986;2023-03-14T07:32:39;98028.09;;;11.51;100.00
4346;BME280;2186;49.866;7.986;2023-03-14T07:35:06;98030.03;;;11.62;100.00
4346;BME280;2186;49.866;7.986;2023-03-14T07:37:33;98033.34;;;11.52;100.00
4346;BME280;2186;49.866;7.986;2023-03-14T07:39:59;98030.16;;;11.60;100.00
4346;BME280;2186;49.866;7.986;2023-03-14T07:42:25;98023.13;;;11.72;100.00
4346;BME280;2186;49.866;7.986;2023-03-14T07:44:52;98029.19;;;11.74;100.00
4346;BME280;2186;49.866;7.986;2023-03-14T07:47:18;98025.44;;;11.76;100.00
4346;BME280;2186;49.866;7.986;2023-03-14T07:49:45;98024.84;;;11.85;100.00
4346;BME280;2186;49.866;7.986;2023-03-14T07:52:11;98020.34;;;11.73;100.00
4346;BME280;2186;49.866;7.986;2023-03-14T07:54:38;98028.13;;;12.02;100.00
4346;BME280;2186;49.866;7.986;2023-03-14T07:57:04;98024.72;;;12.00;100.00
4346;BME280;2186;49.866;7.986;2023-03-14T07:59:30;98024.63;;;12.01;100.00
4346;BME280;2186;49.866;7.986;2023-03-14T08:01:57;98024.94;;;12.09;100.00
4346;BME280;2186;49.866;7.986;2023-03-14T08:04:23;98027.16;;;12.15;100.00
4346;BME280;2186;49.866;7.986;2023-03-14T08:06:50;98022.13;;;12.24;100.00
4346;BME280;2186;49.866;7.986;2023-03-14T08:09:16;98024.72;;;12.12;99.72
4346;BME280;2186;49.866;7.986;2023-03-14T08:11:43;98021.19;;;12.25;99.85
4346;BME280;2186;49.866;7.986;2023-03-14T08:14:09;98024.56;;;12.27;99.91
4346;BME280;2186;49.866;7.986;2023-03-14T08:16:37;98020.00;;;12.16;99.39
4346;BME280;2186;49.866;7.986;2023-03-14T08:19:03;98020.00;;;12.16;99.66
4346;BME280;2186;49.866;7.986;2023-03-14T08:21:30;98018.41;;;12.13;99.54
4346;BME280;2186;49.866;7.986;2023-03-14T08:23:56;98021.31;;;12.10;99.99
4346;BME280;2186;49.866;7.986;2023-03-14T08:26:23;98020.75;;;12.18;100.00
4346;BME280;2186;49.866;7.986;2023-03-14T08:28:49;98026.28;;;12.28;100.00
4346;BME280;2186;49.866;7.986;2023-03-14T08:31:15;98026.34;;;12.39;100.00
4346;BME280;2186;49.866;7.986;2023-03-14T08:33:43;98033.31;;;12.29;100.00
4346;BME280;2186;49.866;7.986;2023-03-14T08:36:09;98027.06;;;12.54;99.19
4346;BME280;2186;49.866;7.986;2023-03-14T08:38:36;98028.03;;;12.53;99.40
4346;BME280;2186;49.866;7.986;2023-03-14T08:41:03;98024.50;;;12.52;98.37
4346;BME280;2186;49.866;7.986;2023-03-14T08:43:30;98029.75;;;12.41;98.75
4346;BME280;2186;49.866;7.986;2023-03-14T08:45:58;98028.38;;;12.48;97.88
4346;BME280;2186;49.866;7.986;2023-03-14T08:48:24;98037.03;;;12.26;98.31
4346;BME280;2186;49.866;7.986;2023-03-14T08:50:51;98041.47;;;12.51;97.78
4346;BME280;2186;49.866;7.986;2023-03-14T08:53:17;98038.94;;;12.37;98.23
4346;BME280;2186;49.866;7.986;2023-03-14T08:55:44;98039.59;;;12.28;98.92
4346;BME280;2186;49.866;7.986;2023-03-14T08:58:11;98048.72;;;12.49;98.46
4346;BME280;2186;49.866;7.986;2023-03-14T09:00:37;98045.28;;;12.47;98.05
4346;BME280;2186;49.866;7.986;2023-03-14T09:03:04;98052.34;;;12.48;97.51
4346;BME280;2186;49.866;7.986;2023-03-14T09:05:33;98055.84;;;12.49;97.82
4346;BME280;2186;49.866;7.986;2023-03-14T09:07:59;98050.22;;;12.40;97.53
4346;BME280;2186;49.866;7.986;2023-03-14T09:10:26;98054.47;;;12.43;97.68
4346;BME280;2186;49.866;7.986;2023-03-14T09:12:52;98055.66;;;12.39;97.71
4346;BME280;2186;49.866;7.986;2023-03-14T09:15:19;98055.09;;;12.46;98.15
4346;BME280;2186;49.866;7.986;2023-03-14T09:17:45;98059.38;;;12.49;97.33
4346;BME280;2186;49.866;7.986;2023-03-14T09:20:12;98056.91;;;12.46;98.12
4346;BME280;2186;49.866;7.986;2023-03-14T09:22:40;98053.50;;;12.44;98.12
4346;BME280;2186;49.866;7.986;2023-03-14T09:25:07;98067.69;;;12.44;97.92
4346;BME280;2186;49.866;7.986;2023-03-14T09:27:34;98067.13;;;12.52;98.06
4346;BME280;2186;49.866;7.986;2023-03-14T09:30:00;98066.41;;;12.50;98.00
4346;BME280;2186;49.866;7.986;2023-03-14T09:32:27;98063.75;;;12.50;98.63
4346;BME280;2186;49.866;7.986;2023-03-14T09:34:53;98064.69;;;12.62;97.95
4346;BME280;2186;49.866;7.986;2023-03-14T09:37:19;98063.41;;;12.55;97.21
4346;BME280;2186;49.866;7.986;2023-03-14T09:39:47;98055.44;;;12.79;96.55
4346;BME280;2186;49.866;7.986;2023-03-14T09:42:16;98058.25;;;12.88;96.58
4346;BME280;2186;49.866;7.986;2023-03-14T09:44:59;98063.25;;;12.93;96.52
4346;BME280;2186;49.866;7.986;2023-03-14T09:47:30;98061.50;;;12.81;96.33
4346;BME280;2186;49.866;7.986;2023-03-14T09:49:56;98057.47;;;12.75;95.85
4346;BME280;2186;49.866;7.986;2023-03-14T09:52:35;98057.56;;;12.73;96.91
4346;BME280;2186;49.866;7.986;2023-03-14T09:55:05;98053.28;;;12.84;95.98
4346;BME280;2186;49.866;7.986;2023-03-14T09:57:34;98064.34;;;12.90;95.91
4346;BME280;2186;49.866;7.986;2023-03-14T10:00:05;98058.13;;;13.02;96.36
4346;BME280;2186;49.866;7.986;2023-03-14T10:02:42;98052.59;;;13.17;97.65
4346;BME280;2186;49.866;7.986;2023-03-14T10:05:17;98048.06;;;13.30;98.27
4346;BME280;2186;49.866;7.986;2023-03-14T10:07:44;98047.34;;;13.15;97.54
4346;BME280;2186;49.866;7.986;2023-03-14T10:10:18;98048.16;;;13.28;98.12
4346;BME280;2186;49.866;7.986;2023-03-14T10:12:47;98049.72;;;13.20;98.04
4346;BME280;2186;49.866;7.986;2023-03-14T10:15:15;98050.97;;;13.14;97.29
4346;BME280;2186;49.866;7.986;2023-03-14T10:17:50;98048.06;;;13.06;97.18
4346;BME280;2186;49.866;7.986;2023-03-14T10:20:35;98046.25;;;13.30;96.88
4346;BME280;2186;49.866;7.986;2023-03-14T10:23:05;98042.22;;;13.25;97.34
4346;BME280;2186;49.866;7.986;2023-03-14T10:25:37;98058.59;;;13.08;97.81
4346;BME280;2186;49.866;7.986;2023-03-14T10:28:04;98052.03;;;13.24;97.12
4346;BME280;2186;49.866;7.986;2023-03-14T10:30:44;98059.34;;;13.33;97.46
4346;BME280;2186;49.866;7.986;2023-03-14T10:33:20;98057.38;;;13.24;97.42
4346;BME280;2186;49.866;7.986;2023-03-14T10:38:35;98055.25;;;13.17;97.85
4346;BME280;2186;49.866;7.986;2023-03-14T10:41:15;98063.31;;;13.28;98.16
4346;BME280;2186;49.866;7.986;2023-03-14T10:43:43;98064.44;;;13.37;98.55
4346;BME280;2186;49.866;7.986;2023-03-14T10:46:14;98066.50;;;13.33;99.23
4346;BME280;2186;49.866;7.986;2023-03-14T10:48:43;98068.59;;;13.41;98.38
4346;BME280;2186;49.866;7.986;2023-03-14T10:51:17;98067.88;;;13.50;98.70
4346;BME280;2186;49.866;7.986;2023-03-14T10:53:58;98066.34;;;13.58;98.02
4346;BME280;2186;49.866;7.986;2023-03-14T10:56:27;98077.66;;;13.73;97.37
4346;BME280;2186;49.866;7.986;2023-03-14T10:58:56;98077.06;;;13.81;96.04
4346;BME280;2186;49.866;7.986;2023-03-14T11:01:59;98074.47;;;13.57;97.36
4346;BME280;2186;49.866;7.986;2023-03-14T11:05:08;98076.66;;;13.63;96.34
4346;BME280;2186;49.866;7.986;2023-03-14T11:07:44;98077.31;;;13.89;96.88
4346;BME280;2186;49.866;7.986;2023-03-14T11:10:32;98081.63;;;13.68;97.85
4346;BME280;2186;49.866;7.986;2023-03-14T11:13:14;98095.63;;;13.82;98.47
4346;BME280;2186;49.866;7.986;2023-03-14T11:15:49;98099.22;;;13.59;98.43
4346;BME280;2186;49.866;7.986;2023-03-14T11:18:31;98100.38;;;13.79;98.72
4346;BME280;2186;49.866;7.986;2023-03-14T11:21:08;98114.53;;;13.68;100.00
4346;BME280;2186;49.866;7.986;2023-03-14T11:26:37;98154.66;;;12.95;100.00
4346;BME280;2186;49.866;7.986;2023-03-14T11:29:24;98168.78;;;12.71;100.00
4346;BME280;2186;49.866;7.986;2023-03-14T11:31:59;98181.28;;;12.58;100.00
4346;BME280;2186;49.866;7.986;2023-03-14T11:34:50;98195.47;;;12.59;100.00
4346;BME280;2186;49.866;7.986;2023-03-14T11:37:40;98210.81;;;12.42;94.79
4346;BME280;2186;49.866;7.986;2023-03-14T11:40:23;98234.41;;;12.36;95.96
4346;BME280;2186;49.866;7.986;2023-03-14T11:45:34;98259.13;;;12.63;93.15
4346;BME280;2186;49.866;7.986;2023-03-14T11:48:15;98282.25;;;12.63;89.90
4346;BME280;2186;49.866;7.986;2023-03-14T11:50:46;98277.03;;;12.61;88.30
4346;BME280;2186;49.866;7.986;2023-03-14T11:53:21;98293.88;;;12.49;87.02
4346;BME280;2186;49.866;7.986;2023-03-14T11:55:48;98306.00;;;12.40;85.53
4346;BME280;2186;49.866;7.986;2023-03-14T11:58:26;98311.56;;;12.50;87.13
4346;BME280;2186;49.866;7.986;2023-03-14T12:00:54;98313.28;;;12.51;89.36
4346;BME280;2186;49.866;7.986;2023-03-14T12:05:59;98332.13;;;12.35;88.20
4346;BME280;2186;49.866;7.986;2023-03-14T12:11:04;98359.91;;;12.04;88.60
4346;BME280;2186;49.866;7.986;2023-03-14T12:13:37;98360.13;;;12.01;88.63
4346;BME280;2186;49.866;7.986;2023-03-14T12:16:07;98358.78;;;12.08;89.92
4346;BME280;2186;49.866;7.986;2023-03-14T12:18:46;98366.13;;;12.18;90.24
4346;BME280;2186;49.866;7.986;2023-03-14T12:21:13;98370.44;;;12.33;88.30
4346;BME280;2186;49.866;7.986;2023-03-14T12:23:51;98387.66;;;12.41;87.91
4346;BME280;2186;49.866;7.986;2023-03-14T12:26:24;98391.75;;;12.33;85.50
4346;BME280;2186;49.866;7.986;2023-03-14T12:36:48;98454.81;;;12.05;86.66
4346;BME280;2186;49.866;7.986;2023-03-14T12:45:29;98485.63;;;12.24;84.10
4346;BME280;2186;49.866;7.986;2023-03-14T12:48:22;98488.69;;;12.03;84.54
4346;BME280;2186;49.866;7.986;2023-03-14T12:51:04;98503.22;;;12.26;84.65
4346;BME280;2186;49.866;7.986;2023-03-14T12:56:32;98516.63;;;12.66;81.33
4346;BME280;2186;49.866;7.986;2023-03-14T13:07:11;98577.16;;;12.23;76.23
4346;BME280;2186;49.866;7.986;2023-03-14T13:09:59;98576.41;;;12.06;78.15
4346;BME280;2186;49.866;7.986;2023-03-14T13:12:29;98583.28;;;12.52;80.21
4346;BME280;2186;49.866;7.986;2023-03-14T13:14:59;98614.69;;;12.46;79.39
4346;BME280;2186;49.866;7.986;2023-03-14T13:17:31;98629.28;;;12.27;79.70
4346;BME280;2186;49.866;7.986;2023-03-14T13:20:10;98643.06;;;12.05;79.37
4346;BME280;2186;49.866;7.986;2023-03-14T13:22:38;98631.84;;;12.28;79.05
4346;BME280;2186;49.866;7.986;2023-03-14T13:25:07;98648.03;;;12.25;78.33
4346;BME280;2186;49.866;7.986;2023-03-14T13:27:36;98664.97;;;12.10;77.41
4346;BME280;2186;49.866;7.986;2023-03-14T13:30:15;98678.66;;;12.18;78.08
4346;BME280;2186;49.866;7.986;2023-03-14T13:32:43;98680.19;;;12.08;77.76
4346;BME280;2186;49.866;7.986;2023-03-14T13:35:28;98679.59;;;12.31;77.71
4346;BME280;2186;49.866;7.986;2023-03-14T13:37:57;98692.06;;;12.16;79.48
4346;BME280;2186;49.866;7.986;2023-03-14T13:40:36;98701.91;;;11.70;77.25
4346;BME280;2186;49.866;7.986;2023-03-14T13:45:53;98721.53;;;11.53;78.25
4346;BME280;2186;49.866;7.986;2023-03-14T13:48:22;98730.47;;;11.21;79.90
4346;BME280;2186;49.866;7.986;2023-03-14T13:50:54;98733.66;;;11.12;79.55
4346;BME280;2186;49.866;7.986;2023-03-14T13:53:22;98743.44;;;11.27;78.97
4346;BME280;2186;49.866;7.986;2023-03-14T13:55:50;98740.59;;;11.30;77.81
4346;BME280;2186;49.866;7.986;2023-03-14T13:58:29;98748.13;;;11.22;76.82
4346;BME280;2186;49.866;7.986;2023-03-14T14:01:02;98758.69;;;11.55;76.58
4346;BME280;2186;49.866;7.986;2023-03-14T14:03:31;98759.72;;;11.21;75.11
4346;BME280;2186;49.866;7.986;2023-03-14T14:05:58;98768.75;;;11.18;74.72
4346;BME280;2186;49.866;7.986;2023-03-14T14:08:25;98761.44;;;11.22;75.09
4346;BME280;2186;49.866;7.986;2023-03-14T14:10:56;98765.97;;;11.04;74.46
4346;BME280;2186;49.866;7.986;2023-03-14T14:13:24;98779.47;;;11.17;73.85